Longjia Airport
ZYCC : now visible

Airfield :











YOU CAN JOIN US ON...

 
LOGIN :

Register | Disclaimer

   EN    FR    IT 

 









Legend :    VFR   Marginal VFR   IFR   Intensive IFR   Very Intensive IFR
Visi :
Ceiling :
>= 8 km
>= 3000ft
5 to 8 km
1000 to 3000 ft
1500m to 5 km
500 to 1000 ft
800 to 1500m
200 to 500 ft
< 800m
< 200 ft
Symbols :   Thunderstorms  Fog  Heavy snow  Heavy precipitations  Wind > 20 kt






- Airport Elevation : 706 ft
- IATA code : CGQ


ZYCC - Longjia

CURRENT METAR :
  • 222300Z 21003MPS 4000 -RA BR OVC020 06/04 Q1019 NOSIG

EXPIRED METARs :
  • 222200Z 19004MPS 9999 -RA OVC020 06/03 Q1019 NOSIG
  • 222100Z 20003MPS 9999 -RA OVC023 07/02 Q1018 NOSIG

TAF TAF ZYCC
Valid from the 23 at 00:00 until the 24 at 00:00 UTC


221908Z 2300/2324 26004G12MPS 6000 BKN026 TX07/2300Z TNM06/22Z
TEMPO 2300/2306 2000 -RASN BR FEW010 OVC020



MET'MAP, your aeronautical weather chart ! - Copyright ORBIFLY December 2007 - Disclaimer

ORBIFLY MET'MAP TEAM :

Programming & Development : Alexandra Zaïnal
Concept & Development : Baudouin d'Aumeries
Co-Development & Prog : Marc-Olivier Méhu
Technical & hardware support : Manuel Goepfert

Contact : metmap@orbifly.com




SOURCES & CREDITS :

   NOAA       Earth
Advisory